Time;durP1;ratioP1;P1;durP2;ratioP2;P2;SDS_P1;SDS_P2;PMS_P1;PMS_P2;Temp;Humidity;BMP_temperature;BMP_pressure;BME280_temperature;BME280_humidity;BME280_pressure;Samples;Min_cycle;Max_cycle;Signal;HPM_P1;HPM_P2
2022/05/28 00:01:08;;;;;;;15.82;4.25;;;;;;;;;;5053783;28;20025;-67
2022/05/28 00:03:35;;;;;;;14.15;3.97;;;;;;;;;;5053682;28;20027;-67
2022/05/28 00:06:01;;;;;;;7.97;4.07;;;;;;;;;;5053063;28;20048;-67
2022/05/28 00:08:28;;;;;;;17.25;4.63;;;;;;;;;;5053427;28;20029;-67
2022/05/28 00:10:55;;;;;;;11.35;3.78;;;;;;;;;;5053855;28;20033;-67
2022/05/28 00:13:23;;;;;;;11.77;3.25;;;;;;;;;;5054058;28;20170;-67
2022/05/28 00:15:49;;;;;;;10.02;3.40;;;;;;;;;;5068117;28;20029;-67
2022/05/28 00:18:16;;;;;;;10.10;3.42;;;;;;;;;;5052820;28;20508;-68
2022/05/28 00:20:42;;;;;;;10.75;3.38;;;;;;;;;;5052821;28;20021;-67
2022/05/28 00:23:08;;;;;;;8.23;3.45;;;;;;;;;;5053270;28;20025;-67
2022/05/28 00:25:34;;;;;;;8.82;3.53;;;;;;;;;;5052741;28;20029;-67
2022/05/28 00:28:01;;;;;;;9.00;3.67;;;;;;;;;;5053262;28;20533;-67
2022/05/28 00:30:27;;;;;;;10.98;3.53;;;;;;;;;;5052707;28;20035;-67
2022/05/28 00:32:53;;;;;;;10.15;3.25;;;;;;;;;;5053084;28;20028;-67
2022/05/28 00:35:20;;;;;;;6.25;3.08;;;;;;;;;;5052370;28;20021;-67
2022/05/28 00:37:47;;;;;;;7.68;3.28;;;;;;;;;;5052801;28;20025;-67
2022/05/28 00:40:15;;;;;;;8.68;3.13;;;;;;;;;;5051734;28;20096;-67
2022/05/28 00:42:41;;;;;;;10.07;3.78;;;;;;;;;;5052969;28;20020;-67
2022/05/28 00:45:08;;;;;;;11.10;3.83;;;;;;;;;;5052896;28;20056;-67
2022/05/28 00:47:35;;;;;;;8.65;3.50;;;;;;;;;;5052085;28;20040;-67
2022/05/28 00:50:03;;;;;;;7.90;4.03;;;;;;;;;;5057017;28;20032;-67
2022/05/28 00:52:29;;;;;;;16.50;3.50;;;;;;;;;;5052167;28;20135;-67
2022/05/28 00:54:55;;;;;;;10.80;3.47;;;;;;;;;;5052801;28;20373;-67
2022/05/28 00:57:23;;;;;;;10.63;3.88;;;;;;;;;;5051860;28;20041;-67
2022/05/28 00:59:49;;;;;;;7.43;2.70;;;;;;;;;;5052390;28;20508;-67
2022/05/28 01:02:18;;;;;;;8.05;3.13;;;;;;;;;;5052529;28;20021;-67
2022/05/28 01:04:54;;;;;;;13.60;3.17;;;;;;;;;;5052106;28;20465;-67
2022/05/28 01:07:25;;;;;;;10.48;3.45;;;;;;;;;;5052319;28;20044;-67
2022/05/28 01:09:57;;;;;;;11.88;3.00;;;;;;;;;;5057512;28;20550;-67
2022/05/28 01:12:30;;;;;;;13.45;5.00;;;;;;;;;;5051880;28;20166;-67
2022/05/28 01:15:03;;;;;;;10.07;3.28;;;;;;;;;;5052583;28;20064;-67
2022/05/28 01:17:42;;;;;;;13.00;3.08;;;;;;;;;;5051176;28;20025;-67
2022/05/28 01:20:11;;;;;;;8.35;3.88;;;;;;;;;;5052295;28;20432;-67
2022/05/28 01:22:52;;;;;;;7.53;3.13;;;;;;;;;;5051835;28;20036;-67
2022/05/28 01:25:18;;;;;;;6.55;2.70;;;;;;;;;;5052180;28;20017;-67
2022/05/28 01:27:49;;;;;;;6.55;3.30;;;;;;;;;;5051826;28;20112;-67
2022/05/28 01:30:17;;;;;;;9.70;3.15;;;;;;;;;;5052128;28;20596;-67
2022/05/28 01:32:44;;;;;;;9.45;3.28;;;;;;;;;;5051715;28;20028;-67
2022/05/28 01:35:15;;;;;;;10.48;3.17;;;;;;;;;;5052292;28;20032;-67
2022/05/28 01:37:43;;;;;;;7.45;2.65;;;;;;;;;;5051912;28;20378;-67
2022/05/28 01:40:10;;;;;;;6.90;3.10;;;;;;;;;;5052101;28;20032;-67
2022/05/28 01:42:38;;;;;;;11.43;3.25;;;;;;;;;;5054426;28;20028;-67
2022/05/28 01:45:05;;;;;;;7.88;3.05;;;;;;;;;;5057998;28;20115;-67
2022/05/28 01:47:33;;;;;;;7.60;3.25;;;;;;;;;;5051232;28;20029;-67
2022/05/28 01:50:00;;;;;;;10.77;3.08;;;;;;;;;;5052170;28;20492;-67
2022/05/28 01:52:28;;;;;;;9.23;3.63;;;;;;;;;;5051707;28;20028;-67
2022/05/28 01:54:56;;;;;;;8.80;2.90;;;;;;;;;;5051940;28;20021;-67
2022/05/28 01:57:22;;;;;;;10.23;3.05;;;;;;;;;;5051582;28;20075;-67
2022/05/28 01:59:49;;;;;;;11.45;3.75;;;;;;;;;;5051794;28;20044;-67
2022/05/28 02:02:15;;;;;;;15.13;3.35;;;;;;;;;;5051438;28;20028;-67
2022/05/28 02:04:44;;;;;;;9.45;3.40;;;;;;;;;;5051752;28;20039;-67
2022/05/28 02:07:10;;;;;;;10.07;3.30;;;;;;;;;;5051685;28;20060;-67
2022/05/28 02:09:40;;;;;;;14.65;3.55;;;;;;;;;;5051284;28;20028;-67
2022/05/28 02:12:16;;;;;;;10.25;3.38;;;;;;;;;;5061637;28;20040;-67
2022/05/28 02:14:42;;;;;;;10.05;3.13;;;;;;;;;;5052916;28;20025;-67
2022/05/28 02:17:11;;;;;;;9.57;3.22;;;;;;;;;;5051303;28;20025;-68
2022/05/28 02:19:50;;;;;;;11.57;3.03;;;;;;;;;;5050356;28;20486;-67
2022/05/28 02:22:35;;;;;;;9.90;3.22;;;;;;;;;;5051407;28;20119;-67
2022/05/28 02:25:06;;;;;;;9.23;3.00;;;;;;;;;;5051235;28;20451;-68
2022/05/28 02:27:34;;;;;;;7.55;3.20;;;;;;;;;;5051503;28;20464;-67
2022/05/28 02:30:01;;;;;;;6.80;3.00;;;;;;;;;;5051408;28;20022;-67
2022/05/28 02:32:27;;;;;;;9.13;2.78;;;;;;;;;;5042969;28;20083;-67
2022/05/28 02:34:53;;;;;;;8.10;3.25;;;;;;;;;;5044053;28;20033;-67
2022/05/28 02:37:25;;;;;;;9.52;4.13;;;;;;;;;;5050490;28;20068;-67
2022/05/28 02:39:52;;;;;;;6.73;3.07;;;;;;;;;;5065237;28;20068;-67
2022/05/28 02:42:18;;;;;;;7.82;3.25;;;;;;;;;;5055247;28;20743;-67
2022/05/28 02:44:44;;;;;;;8.80;2.95;;;;;;;;;;5054771;28;20047;-67
2022/05/28 02:47:10;;;;;;;9.85;3.90;;;;;;;;;;5055182;28;20469;-67
2022/05/28 02:49:36;;;;;;;7.45;2.75;;;;;;;;;;5054905;28;20472;-67
2022/05/28 02:52:06;;;;;;;9.70;3.63;;;;;;;;;;5055099;28;20025;-67
2022/05/28 02:54:32;;;;;;;7.85;3.47;;;;;;;;;;5055198;28;20037;-67
2022/05/28 02:56:59;;;;;;;6.95;3.22;;;;;;;;;;5054900;28;20049;-67
2022/05/28 02:59:25;;;;;;;11.95;3.50;;;;;;;;;;5054674;28;20029;-67
2022/05/28 03:01:52;;;;;;;8.77;3.42;;;;;;;;;;5054584;28;20029;-67
2022/05/28 03:04:20;;;;;;;8.65;3.25;;;;;;;;;;5055008;28;20103;-67
2022/05/28 03:06:46;;;;;;;9.48;3.47;;;;;;;;;;5054759;28;20024;-67
2022/05/28 03:09:12;;;;;;;12.45;3.70;;;;;;;;;;5054772;28;20042;-67
2022/05/28 03:11:39;;;;;;;8.55;3.65;;;;;;;;;;5054474;28;20040;-67
2022/05/28 03:14:05;;;;;;;8.57;4.00;;;;;;;;;;5056854;28;20029;-67
2022/05/28 03:16:31;;;;;;;11.18;3.33;;;;;;;;;;5054855;28;20025;-67
2022/05/28 03:18:57;;;;;;;5.45;2.95;;;;;;;;;;5054326;28;20021;-67
2022/05/28 03:21:24;;;;;;;10.02;2.80;;;;;;;;;;5054800;28;20485;-67
2022/05/28 03:23:50;;;;;;;6.95;2.67;;;;;;;;;;5054293;28;20032;-67
2022/05/28 03:26:24;;;;;;;10.60;3.33;;;;;;;;;;5054630;28;20029;-67
2022/05/28 03:28:51;;;;;;;9.15;3.63;;;;;;;;;;5053786;28;20147;-67
2022/05/28 03:31:17;;;;;;;10.02;2.85;;;;;;;;;;5054627;28;20021;-67
2022/05/28 03:33:43;;;;;;;8.55;3.50;;;;;;;;;;5053909;28;20037;-67
2022/05/28 03:36:10;;;;;;;7.22;2.80;;;;;;;;;;5054420;28;20044;-67
2022/05/28 03:38:36;;;;;;;10.65;3.13;;;;;;;;;;5054428;28;20040;-67
2022/05/28 03:41:02;;;;;;;9.50;2.90;;;;;;;;;;5053546;28;20021;-67
2022/05/28 03:43:28;;;;;;;4.63;2.67;;;;;;;;;;5053875;28;20041;-67
2022/05/28 03:45:55;;;;;;;11.13;3.05;;;;;;;;;;5053836;28;20060;-67
2022/05/28 03:48:21;;;;;;;11.43;3.55;;;;;;;;;;5054093;28;20119;-67
2022/05/28 03:50:48;;;;;;;7.00;2.42;;;;;;;;;;5058618;28;20429;-67
2022/05/28 03:53:15;;;;;;;10.23;3.17;;;;;;;;;;5060796;28;20033;-67
2022/05/28 03:55:41;;;;;;;7.53;2.90;;;;;;;;;;5053799;28;20048;-67
2022/05/28 03:58:08;;;;;;;9.90;3.20;;;;;;;;;;5037425;28;20036;-67
2022/05/28 04:00:36;;;;;;;8.50;3.20;;;;;;;;;;5051571;28;20413;-67
2022/05/28 04:03:02;;;;;;;9.02;3.13;;;;;;;;;;5050378;28;20036;-67
2022/05/28 04:05:28;;;;;;;6.85;2.50;;;;;;;;;;5052113;28;20116;-67
2022/05/28 04:07:55;;;;;;;8.32;3.28;;;;;;;;;;5053365;28;20029;-67
2022/05/28 04:10:21;;;;;;;8.35;3.05;;;;;;;;;;5053038;28;20113;-67
2022/05/28 04:12:48;;;;;;;8.10;3.20;;;;;;;;;;5052561;28;20120;-67
2022/05/28 04:15:14;;;;;;;4.82;2.55;;;;;;;;;;5049027;28;20554;-67
2022/05/28 04:17:40;;;;;;;9.10;3.35;;;;;;;;;;5051579;28;20029;-67
2022/05/28 04:20:08;;;;;;;6.28;2.80;;;;;;;;;;5050816;28;20461;-67
2022/05/28 04:22:34;;;;;;;9.15;2.70;;;;;;;;;;5052082;28;20028;-67
2022/05/28 04:25:00;;;;;;;5.78;3.00;;;;;;;;;;5052109;28;20021;-67
2022/05/28 04:27:26;;;;;;;8.63;3.05;;;;;;;;;;5052900;28;20033;-67
2022/05/28 04:29:52;;;;;;;8.25;3.03;;;;;;;;;;5052406;28;20095;-67
2022/05/28 04:32:18;;;;;;;7.20;2.92;;;;;;;;;;5052750;28;20029;-67
2022/05/28 04:34:45;;;;;;;7.35;2.67;;;;;;;;;;5055395;28;20024;-67
2022/05/28 04:37:11;;;;;;;7.25;3.33;;;;;;;;;;5061429;28;20036;-67
2022/05/28 04:39:37;;;;;;;6.70;3.10;;;;;;;;;;5053290;28;20025;-67
2022/05/28 04:42:04;;;;;;;9.38;2.90;;;;;;;;;;5051450;28;20027;-67
2022/05/28 04:44:30;;;;;;;9.20;3.20;;;;;;;;;;5053163;28;20384;-67
2022/05/28 04:46:56;;;;;;;8.38;3.03;;;;;;;;;;5052662;28;20104;-67
2022/05/28 04:49:22;;;;;;;9.65;3.05;;;;;;;;;;5049899;28;20031;-67
2022/05/28 04:51:48;;;;;;;5.13;2.90;;;;;;;;;;5045666;28;20404;-67
2022/05/28 04:54:14;;;;;;;13.23;3.17;;;;;;;;;;5052608;28;20071;-67
2022/05/28 04:56:41;;;;;;;8.40;2.88;;;;;;;;;;5051237;28;20045;-67
2022/05/28 04:59:07;;;;;;;7.93;3.13;;;;;;;;;;5052522;28;20063;-67
2022/05/28 05:01:34;;;;;;;6.15;3.13;;;;;;;;;;5041108;28;20022;-67
2022/05/28 05:04:00;;;;;;;15.30;3.10;;;;;;;;;;5050260;28;20033;-67
2022/05/28 05:06:26;;;;;;;11.32;2.63;;;;;;;;;;5051543;28;20580;-67
2022/05/28 05:08:52;;;;;;;6.78;2.70;;;;;;;;;;5053054;28;20377;-68
2022/05/28 05:11:18;;;;;;;7.45;3.85;;;;;;;;;;5048680;28;20416;-68
2022/05/28 05:13:44;;;;;;;9.95;3.10;;;;;;;;;;5046846;28;20048;-68
2022/05/28 05:16:11;;;;;;;9.07;3.13;;;;;;;;;;5051422;28;20029;-68
2022/05/28 05:18:37;;;;;;;15.25;3.47;;;;;;;;;;5040064;28;20025;-68
2022/05/28 05:21:04;;;;;;;11.52;3.17;;;;;;;;;;5036814;28;20028;-68
2022/05/28 05:23:30;;;;;;;5.68;2.70;;;;;;;;;;5037487;28;20029;-68
2022/05/28 05:25:56;;;;;;;9.18;3.20;;;;;;;;;;5039837;28;20040;-68
2022/05/28 05:28:22;;;;;;;12.02;4.13;;;;;;;;;;5040215;28;20396;-66
2022/05/28 05:30:48;;;;;;;7.03;2.92;;;;;;;;;;5036385;28;20040;-68
2022/05/28 05:33:14;;;;;;;12.50;3.00;;;;;;;;;;5032887;28;20385;-69
2022/05/28 05:35:41;;;;;;;8.43;3.78;;;;;;;;;;5034047;28;20063;-70
2022/05/28 05:38:08;;;;;;;16.45;3.70;;;;;;;;;;5033122;28;20021;-68
2022/05/28 05:40:37;;;;;;;8.68;3.50;;;;;;;;;;5034405;28;20083;-69
2022/05/28 05:43:04;;;;;;;9.05;3.22;;;;;;;;;;5033434;28;20017;-69
2022/05/28 05:45:30;;;;;;;12.68;3.40;;;;;;;;;;5035338;28;20072;-75
2022/05/28 05:47:56;;;;;;;10.65;3.67;;;;;;;;;;5033577;28;20041;-71
2022/05/28 05:50:22;;;;;;;13.15;4.07;;;;;;;;;;5031657;28;20471;-69
2022/05/28 05:52:49;;;;;;;9.18;3.15;;;;;;;;;;5030886;28;20040;-70
2022/05/28 05:55:15;;;;;;;8.18;3.28;;;;;;;;;;5037939;28;20056;-70
2022/05/28 05:57:41;;;;;;;9.93;3.58;;;;;;;;;;5045288;28;20034;-64
2022/05/28 06:00:07;;;;;;;12.82;4.10;;;;;;;;;;5048478;28;20118;-64
2022/05/28 06:02:33;;;;;;;11.00;4.38;;;;;;;;;;5050689;28;20056;-64
2022/05/28 06:05:00;;;;;;;14.10;4.07;;;;;;;;;;5046160;28;20033;-65
2022/05/28 06:07:26;;;;;;;11.80;3.35;;;;;;;;;;5047961;28;20052;-65
2022/05/28 06:09:52;;;;;;;12.90;4.18;;;;;;;;;;5052651;28;20047;-65
2022/05/28 06:12:18;;;;;;;22.23;4.20;;;;;;;;;;5052162;28;20037;-65
2022/05/28 06:14:45;;;;;;;13.73;4.03;;;;;;;;;;5052262;28;20402;-65
2022/05/28 06:17:11;;;;;;;17.02;4.07;;;;;;;;;;5050714;28;20020;-65
2022/05/28 06:19:37;;;;;;;14.48;4.75;;;;;;;;;;5050499;28;20436;-65
2022/05/28 06:22:03;;;;;;;20.83;4.10;;;;;;;;;;5049410;28;20066;-65
2022/05/28 06:24:29;;;;;;;15.82;3.65;;;;;;;;;;5046664;28;20095;-65
2022/05/28 06:26:59;;;;;;;18.33;4.28;;;;;;;;;;5048758;28;20029;-65
2022/05/28 06:29:26;;;;;;;17.10;4.65;;;;;;;;;;5046657;28;20043;-65
2022/05/28 06:31:52;;;;;;;18.60;3.70;;;;;;;;;;5049393;28;20032;-65
2022/05/28 06:34:18;;;;;;;17.52;4.63;;;;;;;;;;5049627;28;20025;-65
2022/05/28 06:36:45;;;;;;;18.42;3.55;;;;;;;;;;5050143;28;20021;-65
2022/05/28 06:39:11;;;;;;;25.60;6.40;;;;;;;;;;5050092;28;20082;-64
2022/05/28 06:41:37;;;;;;;16.90;3.83;;;;;;;;;;5050122;28;20060;-64
2022/05/28 06:44:03;;;;;;;24.48;3.72;;;;;;;;;;5050461;28;20163;-65
2022/05/28 06:46:29;;;;;;;19.48;5.15;;;;;;;;;;5050024;28;20083;-64
2022/05/28 06:48:55;;;;;;;23.52;4.95;;;;;;;;;;5050105;28;20067;-64
2022/05/28 06:51:21;;;;;;;15.32;3.53;;;;;;;;;;5046043;28;20033;-64
2022/05/28 06:53:48;;;;;;;14.40;4.07;;;;;;;;;;5048084;28;20043;-65
2022/05/28 06:56:16;;;;;;;25.58;5.32;;;;;;;;;;5071726;28;20036;-65
2022/05/28 06:58:45;;;;;;;23.23;3.90;;;;;;;;;;5051949;28;20040;-64
2022/05/28 07:01:12;;;;;;;24.95;4.20;;;;;;;;;;5049303;28;20082;-64
2022/05/28 07:03:40;;;;;;;24.48;4.53;;;;;;;;;;5048552;28;20071;-65
2022/05/28 07:06:06;;;;;;;19.00;4.70;;;;;;;;;;5048533;28;20025;-65
2022/05/28 07:08:33;;;;;;;17.65;3.65;;;;;;;;;;5043267;28;20029;-65
2022/05/28 07:11:00;;;;;;;13.93;3.25;;;;;;;;;;5042350;28;20059;-65
2022/05/28 07:13:28;;;;;;;20.15;3.92;;;;;;;;;;5044712;28;20400;-70
2022/05/28 07:15:54;;;;;;;17.77;3.90;;;;;;;;;;5052004;28;20131;-74
2022/05/28 07:18:20;;;;;;;16.55;3.50;;;;;;;;;;5048535;28;20029;-74
2022/05/28 07:20:46;;;;;;;17.33;3.40;;;;;;;;;;5047476;28;20021;-74
2022/05/28 07:23:17;;;;;;;20.65;5.00;;;;;;;;;;5049630;28;20075;-74
2022/05/28 07:25:43;;;;;;;15.68;3.33;;;;;;;;;;5047021;28;20032;-73
2022/05/28 07:28:26;;;;;;;13.00;3.10;;;;;;;;;;5049104;28;20124;-73
2022/05/28 07:30:56;;;;;;;15.43;3.42;;;;;;;;;;5050940;28;20028;-73
2022/05/28 07:33:24;;;;;;;11.80;3.78;;;;;;;;;;5042457;28;20037;-73
2022/05/28 07:35:51;;;;;;;10.00;2.63;;;;;;;;;;5048476;28;20504;-72
2022/05/28 07:38:17;;;;;;;13.77;2.58;;;;;;;;;;5049707;28;20397;-73
2022/05/28 07:40:43;;;;;;;9.18;2.78;;;;;;;;;;5044747;28;20047;-73
2022/05/28 07:43:10;;;;;;;15.13;3.38;;;;;;;;;;5048250;28;20025;-73
2022/05/28 07:45:37;;;;;;;8.90;2.38;;;;;;;;;;5043853;28;20017;-73
2022/05/28 07:48:03;;;;;;;17.60;2.90;;;;;;;;;;5045303;28;20948;-73
2022/05/28 07:50:29;;;;;;;11.27;2.47;;;;;;;;;;5049456;28;20097;-73
2022/05/28 07:52:57;;;;;;;15.02;3.00;;;;;;;;;;5045160;28;20470;-74
2022/05/28 07:55:23;;;;;;;14.55;2.50;;;;;;;;;;5042837;28;20485;-72
2022/05/28 07:57:50;;;;;;;19.80;2.53;;;;;;;;;;5043844;28;20145;-72
2022/05/28 08:00:16;;;;;;;15.30;2.72;;;;;;;;;;5044419;28;20025;-72
2022/05/28 08:02:42;;;;;;;12.35;2.65;;;;;;;;;;5060346;28;20116;-72
2022/05/28 08:05:09;;;;;;;8.55;2.42;;;;;;;;;;5050449;28;20044;-72
2022/05/28 08:07:35;;;;;;;12.48;2.67;;;;;;;;;;5051148;28;20025;-71
2022/05/28 08:10:01;;;;;;;14.48;2.10;;;;;;;;;;5049506;28;21539;-71
2022/05/28 08:12:27;;;;;;;5.65;1.88;;;;;;;;;;5056841;28;20033;-71
2022/05/28 08:14:53;;;;;;;8.07;1.70;;;;;;;;;;5052295;28;20029;-71
2022/05/28 08:17:19;;;;;;;14.63;2.70;;;;;;;;;;5053410;28;20083;-71
2022/05/28 08:19:45;;;;;;;11.90;2.00;;;;;;;;;;5052769;28;20056;-71
2022/05/28 08:24:56;;;;;;;6.03;2.45;;;;;;;;;;5052126;28;20025;-72
2022/05/28 08:27:26;;;;;;;13.02;2.30;;;;;;;;;;5055942;28;20033;-71
2022/05/28 08:29:52;;;;;;;9.07;2.20;;;;;;;;;;5052432;28;20039;-71
2022/05/28 08:32:18;;;;;;;6.13;1.75;;;;;;;;;;5046510;28;20018;-72
2022/05/28 08:34:45;;;;;;;7.70;2.17;;;;;;;;;;5052886;28;20052;-72
2022/05/28 08:37:11;;;;;;;8.95;2.25;;;;;;;;;;5060798;28;20025;-72
2022/05/28 08:39:40;;;;;;;7.75;1.92;;;;;;;;;;5056122;28;20074;-72
2022/05/28 08:42:07;;;;;;;8.40;2.00;;;;;;;;;;5037629;28;20021;-73
2022/05/28 08:44:36;;;;;;;7.13;1.92;;;;;;;;;;5064846;28;20033;-72
2022/05/28 08:47:35;;;;;;;8.98;1.85;;;;;;;;;;5048965;28;20124;-72
2022/05/28 08:50:01;;;;;;;11.02;2.20;;;;;;;;;;5007033;28;20541;-71
2022/05/28 08:52:48;;;;;;;11.77;2.10;;;;;;;;;;5010669;28;20401;-71
2022/05/28 08:55:23;;;;;;;6.97;1.73;;;;;;;;;;5018305;28;20096;-71
2022/05/28 08:57:58;;;;;;;8.50;2.22;;;;;;;;;;5016913;28;20531;-71
2022/05/28 09:00:33;;;;;;;11.43;1.80;;;;;;;;;;5014521;28;20070;-71
2022/05/28 09:03:05;;;;;;;9.02;1.92;;;;;;;;;;5011466;28;20505;-71
2022/05/28 09:05:34;;;;;;;8.70;2.25;;;;;;;;;;5009686;28;20092;-71
2022/05/28 09:08:03;;;;;;;16.27;2.78;;;;;;;;;;5011065;28;20125;-71
2022/05/28 09:10:32;;;;;;;9.63;1.45;;;;;;;;;;5016295;28;20041;-71
2022/05/28 09:13:05;;;;;;;9.15;2.00;;;;;;;;;;5010222;28;20060;-71
2022/05/28 09:15:33;;;;;;;6.07;1.80;;;;;;;;;;5012331;28;20088;-71
2022/05/28 09:17:59;;;;;;;11.68;1.77;;;;;;;;;;5009958;28;20042;-71
2022/05/28 09:20:32;;;;;;;12.00;2.15;;;;;;;;;;5009856;28;20041;-71
2022/05/28 09:22:58;;;;;;;;;;;;;;;;;;5010993;28;20108;-71
2022/05/28 09:25:24;;;;;;;12.52;2.55;;;;;;;;;;5028079;28;19904;-70
2022/05/28 09:28:00;;;;;;;11.88;1.75;;;;;;;;;;5055421;28;20032;-71
2022/05/28 09:30:37;;;;;;;11.85;2.22;;;;;;;;;;5051527;28;20040;-71
2022/05/28 09:33:22;;;;;;;8.77;2.00;;;;;;;;;;5058313;28;20078;-71
2022/05/28 09:36:06;;;;;;;7.80;1.77;;;;;;;;;;5070633;28;20028;-71
2022/05/28 09:38:51;;;;;;;5.63;1.58;;;;;;;;;;5052171;28;20029;-71
2022/05/28 09:41:26;;;;;;;9.02;1.83;;;;;;;;;;5053334;28;20036;-71
2022/05/28 09:43:56;;;;;;;10.90;1.63;;;;;;;;;;5058279;28;20378;-71
2022/05/28 09:46:42;;;;;;;8.70;2.00;;;;;;;;;;5051472;28;20040;-71
2022/05/28 09:49:11;;;;;;;9.93;1.98;;;;;;;;;;5032297;28;20037;-71
2022/05/28 09:51:37;;;;;;;7.45;2.05;;;;;;;;;;5051239;28;20032;-71
2022/05/28 09:54:17;;;;;;;5.90;1.80;;;;;;;;;;5049487;28;20032;-71
2022/05/28 09:56:57;;;;;;;11.23;2.33;;;;;;;;;;5050673;28;20079;-71
2022/05/28 09:59:26;;;;;;;9.07;2.22;;;;;;;;;;5060804;28;20029;-71
2022/05/28 10:02:04;;;;;;;7.75;2.00;;;;;;;;;;5056848;28;20416;-71
2022/05/28 10:04:31;;;;;;;15.98;1.83;;;;;;;;;;5037828;28;20028;-71
2022/05/28 10:07:06;;;;;;;7.15;1.60;;;;;;;;;;5050161;28;20142;-72
2022/05/28 10:09:33;;;;;;;7.28;2.05;;;;;;;;;;5065106;28;20040;-71
2022/05/28 10:12:11;;;;;;;17.08;3.15;;;;;;;;;;5064235;28;20031;-71
2022/05/28 10:14:37;;;;;;;9.00;2.03;;;;;;;;;;5048179;28;20064;-71
2022/05/28 10:17:04;;;;;;;6.95;1.80;;;;;;;;;;5061328;28;20489;-72
2022/05/28 10:19:33;;;;;;;11.60;2.17;;;;;;;;;;5051123;28;20021;-72
2022/05/28 10:22:01;;;;;;;8.77;1.77;;;;;;;;;;5051778;28;20373;-71
2022/05/28 10:24:30;;;;;;;12.07;2.20;;;;;;;;;;5050796;28;20032;-71
2022/05/28 10:26:57;;;;;;;12.15;2.13;;;;;;;;;;5052103;28;20500;-71
2022/05/28 10:29:23;;;;;;;8.82;2.30;;;;;;;;;;5051238;28;20029;-71
2022/05/28 10:31:51;;;;;;;6.25;2.00;;;;;;;;;;5051771;28;20036;-71
2022/05/28 10:34:37;;;;;;;10.68;3.90;;;;;;;;;;5046579;28;20036;-72
2022/05/28 10:37:11;;;;;;;8.00;1.80;;;;;;;;;;5046156;28;20792;-72
2022/05/28 10:39:37;;;;;;;8.50;2.65;;;;;;;;;;5043207;28;20028;-72
2022/05/28 10:42:04;;;;;;;6.60;1.83;;;;;;;;;;5049004;28;20039;-72
2022/05/28 10:44:30;;;;;;;9.10;2.03;;;;;;;;;;5068778;28;20511;-72
2022/05/28 10:46:56;;;;;;;11.80;1.88;;;;;;;;;;5076466;28;20743;-72
2022/05/28 10:49:25;;;;;;;4.82;1.98;;;;;;;;;;5051967;28;20025;-72
2022/05/28 10:52:01;;;;;;;9.23;2.70;;;;;;;;;;5060473;28;20087;-72
2022/05/28 10:54:27;;;;;;;6.78;2.28;;;;;;;;;;5052482;28;20048;-72
2022/05/28 10:57:19;;;;;;;14.27;6.22;;;;;;;;;;5055337;28;20084;-72
2022/05/28 11:00:07;;;;;;;9.00;1.92;;;;;;;;;;5047284;28;20602;-73
2022/05/28 11:02:36;;;;;;;7.75;2.28;;;;;;;;;;5045374;28;20072;-73
2022/05/28 11:05:08;;;;;;;10.27;2.47;;;;;;;;;;5058191;28;20017;-72
2022/05/28 11:07:37;;;;;;;8.55;1.88;;;;;;;;;;5055219;28;20356;-73
2022/05/28 11:10:11;;;;;;;8.80;2.00;;;;;;;;;;5054291;28;20447;-73
2022/05/28 11:12:58;;;;;;;7.32;2.53;;;;;;;;;;5048270;28;20056;-72
2022/05/28 11:15:32;;;;;;;7.45;2.35;;;;;;;;;;5060145;28;20119;-72
2022/05/28 11:18:18;;;;;;;14.23;4.15;;;;;;;;;;5044167;28;20060;-72
2022/05/28 11:21:02;;;;;;;6.85;2.55;;;;;;;;;;5049782;28;20036;-73
2022/05/28 11:23:31;;;;;;;26.33;11.65;;;;;;;;;;5052456;28;20467;-67
2022/05/28 11:26:09;;;;;;;14.20;2.20;;;;;;;;;;5054164;28;20048;-71
2022/05/28 11:28:35;;;;;;;10.52;2.08;;;;;;;;;;5063155;28;20033;-71
2022/05/28 11:31:10;;;;;;;13.40;2.90;;;;;;;;;;5071197;28;20032;-71
2022/05/28 11:33:37;;;;;;;14.55;1.85;;;;;;;;;;5075003;28;20143;-71
2022/05/28 11:36:11;;;;;;;13.02;2.58;;;;;;;;;;5073321;28;20032;-71
2022/05/28 11:38:40;;;;;;;9.95;2.13;;;;;;;;;;5054417;28;20478;-70
2022/05/28 11:41:12;;;;;;;8.98;2.40;;;;;;;;;;5054079;28;20056;-71
2022/05/28 11:43:42;;;;;;;10.57;3.00;;;;;;;;;;5054329;28;20049;-71
2022/05/28 11:46:14;;;;;;;10.15;2.28;;;;;;;;;;5054000;28;20033;-70
2022/05/28 11:51:39;;;;;;;15.68;2.20;;;;;;;;;;5064805;28;20029;-70
2022/05/28 11:54:11;;;;;;;9.27;2.17;;;;;;;;;;5057330;28;20064;-70
2022/05/28 11:56:37;;;;;;;7.13;1.83;;;;;;;;;;5053597;28;20118;-70
2022/05/28 11:59:14;;;;;;;8.25;2.17;;;;;;;;;;5053748;28;20044;-71
2022/05/28 12:01:45;;;;;;;11.95;2.83;;;;;;;;;;5056512;28;20040;-70
2022/05/28 12:04:11;;;;;;;11.10;2.75;;;;;;;;;;5073935;28;20078;-71
2022/05/28 12:06:40;;;;;;;9.27;3.55;;;;;;;;;;5073998;28;20052;-70
2022/05/28 12:09:09;;;;;;;6.60;1.90;;;;;;;;;;5073797;28;20389;-70
2022/05/28 12:11:35;;;;;;;12.50;3.40;;;;;;;;;;5073805;28;20385;-71
2022/05/28 12:14:04;;;;;;;9.38;2.15;;;;;;;;;;5073656;28;20032;-71
2022/05/28 12:16:38;;;;;;;9.82;2.03;;;;;;;;;;5067802;28;20095;-71
2022/05/28 12:19:07;;;;;;;10.52;3.13;;;;;;;;;;5033750;28;20030;-71
2022/05/28 12:21:38;;;;;;;6.50;1.60;;;;;;;;;;5033900;28;20104;-71
2022/05/28 12:24:09;;;;;;;10.40;2.10;;;;;;;;;;5045299;28;20038;-71
2022/05/28 12:29:10;;;;;;;8.25;1.70;;;;;;;;;;5064888;28;20047;-70
2022/05/28 12:31:36;;;;;;;12.85;1.80;;;;;;;;;;5065896;28;20056;-71
2022/05/28 12:34:03;;;;;;;10.60;1.98;;;;;;;;;;5053230;28;20048;-71
2022/05/28 12:36:44;;;;;;;8.30;1.65;;;;;;;;;;5058237;28;20029;-71
2022/05/28 12:39:13;;;;;;;6.18;1.60;;;;;;;;;;5052832;28;20443;-71
2022/05/28 12:41:39;;;;;;;16.02;5.40;;;;;;;;;;5055164;28;20029;-71
2022/05/28 12:44:11;;;;;;;7.55;1.80;;;;;;;;;;5056466;28;20033;-69
2022/05/28 12:47:06;;;;;;;9.95;2.13;;;;;;;;;;5039014;28;20064;-69
2022/05/28 12:49:37;;;;;;;9.93;2.33;;;;;;;;;;5044115;28;20041;-69
2022/05/28 12:52:03;;;;;;;7.25;1.48;;;;;;;;;;5046357;28;20028;-68
2022/05/28 12:54:34;;;;;;;7.65;1.60;;;;;;;;;;5046381;28;20032;-70
2022/05/28 12:57:26;;;;;;;11.80;2.30;;;;;;;;;;5034901;28;20049;-70
2022/05/28 13:00:05;;;;;;;6.88;1.80;;;;;;;;;;5031274;28;20033;-70
2022/05/28 13:02:42;;;;;;;11.45;2.70;;;;;;;;;;5058147;28;20082;-70
2022/05/28 13:05:12;;;;;;;7.68;2.00;;;;;;;;;;5061634;28;20535;-69
2022/05/28 13:07:41;;;;;;;7.30;1.70;;;;;;;;;;5072966;28;20037;-70
2022/05/28 13:10:07;;;;;;;13.52;2.00;;;;;;;;;;5072222;28;20028;-69
2022/05/28 13:12:38;;;;;;;13.02;1.90;;;;;;;;;;5072031;28;20047;-70
2022/05/28 13:15:23;;;;;;;7.90;1.73;;;;;;;;;;5058864;28;20506;-70
2022/05/28 13:18:11;;;;;;;9.10;2.03;;;;;;;;;;5052407;28;20041;-70
2022/05/28 13:20:37;;;;;;;8.02;1.50;;;;;;;;;;5052760;28;20083;-70
2022/05/28 13:23:10;;;;;;;9.18;2.00;;;;;;;;;;5051790;28;20021;-70
2022/05/28 13:25:45;;;;;;;5.07;1.65;;;;;;;;;;5052565;28;20025;-70
2022/05/28 13:28:20;;;;;;;8.93;1.75;;;;;;;;;;5052544;28;20063;-70
2022/05/28 13:30:53;;;;;;;7.10;1.35;;;;;;;;;;5052381;28;20211;-70
2022/05/28 13:33:19;;;;;;;7.80;1.67;;;;;;;;;;5052101;28;20029;-70
2022/05/28 13:35:47;;;;;;;9.30;1.98;;;;;;;;;;5051939;28;20021;-70
2022/05/28 13:38:17;;;;;;;9.30;2.10;;;;;;;;;;5051863;28;20441;-69
2022/05/28 13:40:43;;;;;;;10.05;1.88;;;;;;;;;;5052080;28;20067;-69
2022/05/28 13:43:11;;;;;;;11.52;2.38;;;;;;;;;;5052113;28;20037;-70
2022/05/28 13:45:39;;;;;;;10.80;2.00;;;;;;;;;;5052358;28;20037;-69
2022/05/28 13:48:07;;;;;;;10.43;2.00;;;;;;;;;;5051880;28;20037;-70
2022/05/28 13:50:36;;;;;;;6.93;1.40;;;;;;;;;;5051961;28;20032;-70
2022/05/28 13:53:02;;;;;;;6.65;1.50;;;;;;;;;;5051574;28;20029;-69
2022/05/28 13:55:28;;;;;;;7.97;1.63;;;;;;;;;;5051921;28;20035;-70
2022/05/28 13:57:55;;;;;;;15.73;2.47;;;;;;;;;;5042053;28;20091;-68
2022/05/28 14:00:24;;;;;;;7.57;1.38;;;;;;;;;;5059142;28;20056;-68
2022/05/28 14:02:59;;;;;;;12.15;2.10;;;;;;;;;;5051887;28;20021;-68
2022/05/28 14:05:29;;;;;;;6.80;1.98;;;;;;;;;;5046851;28;20040;-68
2022/05/28 14:07:56;;;;;;;9.35;2.22;;;;;;;;;;5042848;28;20536;-68
2022/05/28 14:10:23;;;;;;;9.75;1.52;;;;;;;;;;5049678;28;20068;-68
2022/05/28 14:12:50;;;;;;;9.75;2.63;;;;;;;;;;5041219;28;20029;-69
2022/05/28 14:15:24;;;;;;;9.23;1.77;;;;;;;;;;5047471;28;20397;-68
2022/05/28 14:17:51;;;;;;;13.60;1.85;;;;;;;;;;5043239;28;20474;-68
2022/05/28 14:20:19;;;;;;;5.88;1.77;;;;;;;;;;5041610;28;20021;-69
2022/05/28 14:22:47;;;;;;;5.13;1.80;;;;;;;;;;5051620;28;20388;-69
2022/05/28 14:25:39;;;;;;;8.32;2.20;;;;;;;;;;5052852;28;20021;-69
2022/05/28 14:28:10;;;;;;;9.40;1.47;;;;;;;;;;5043539;28;20033;-68
2022/05/28 14:30:38;;;;;;;14.50;1.95;;;;;;;;;;5047160;28;20080;-68
2022/05/28 14:33:06;;;;;;;11.20;1.90;;;;;;;;;;5051890;28;20101;-69
2022/05/28 14:35:35;;;;;;;6.35;1.60;;;;;;;;;;5055167;28;20392;-69
2022/05/28 14:38:03;;;;;;;8.10;2.10;;;;;;;;;;5044590;28;20025;-69
2022/05/28 14:40:30;;;;;;;9.10;2.00;;;;;;;;;;5054671;28;20029;-68
2022/05/28 14:42:57;;;;;;;10.77;2.00;;;;;;;;;;5049077;28;20115;-68
2022/05/28 14:45:26;;;;;;;6.72;2.03;;;;;;;;;;5055384;28;20029;-68
2022/05/28 14:47:53;;;;;;;10.10;1.85;;;;;;;;;;5046757;28;20123;-68
2022/05/28 14:50:35;;;;;;;10.07;1.80;;;;;;;;;;5042266;28;20033;-69
2022/05/28 14:53:02;;;;;;;8.57;2.15;;;;;;;;;;5047373;28;20040;-69
2022/05/28 14:55:31;;;;;;;10.60;2.00;;;;;;;;;;5054582;28;20037;-69
2022/05/28 14:58:03;;;;;;;6.75;1.95;;;;;;;;;;5054741;28;20409;-69